sensor_id;sensor_type;location;lat;lon;timestamp;P1;durP1;ratioP1;P2;durP2;ratioP2
25988;SDS011;13778;48.236;9.894;2022-07-29T00:00:36;10.23;;;9.10;;
25988;SDS011;13778;48.236;9.894;2022-07-29T00:03:26;11.88;;;10.00;;
25988;SDS011;13778;48.236;9.894;2022-07-29T00:06:18;14.73;;;9.98;;
25988;SDS011;13778;48.236;9.894;2022-07-29T00:09:10;13.70;;;9.43;;
25988;SDS011;13778;48.236;9.894;2022-07-29T00:12:00;12.25;;;9.80;;
25988;SDS011;13778;48.236;9.894;2022-07-29T00:14:51;11.20;;;10.13;;
25988;SDS011;13778;48.236;9.894;2022-07-29T00:17:41;10.60;;;9.60;;
25988;SDS011;13778;48.236;9.894;2022-07-29T00:20:32;13.23;;;9.40;;
25988;SDS011;13778;48.236;9.894;2022-07-29T00:23:24;12.18;;;8.73;;
25988;SDS011;13778;48.236;9.894;2022-07-29T00:29:04;9.68;;;8.77;;
25988;SDS011;13778;48.236;9.894;2022-07-29T00:31:55;10.07;;;8.80;;
25988;SDS011;13778;48.236;9.894;2022-07-29T00:34:45;10.45;;;8.80;;
25988;SDS011;13778;48.236;9.894;2022-07-29T00:37:53;11.18;;;8.38;;
25988;SDS011;13778;48.236;9.894;2022-07-29T00:40:45;10.57;;;8.23;;
25988;SDS011;13778;48.236;9.894;2022-07-29T00:43:36;10.55;;;8.80;;
25988;SDS011;13778;48.236;9.894;2022-07-29T00:46:26;12.30;;;8.48;;
25988;SDS011;13778;48.236;9.894;2022-07-29T00:49:17;8.95;;;8.05;;
25988;SDS011;13778;48.236;9.894;2022-07-29T00:52:08;9.02;;;7.88;;
25988;SDS011;13778;48.236;9.894;2022-07-29T00:54:58;11.48;;;8.48;;
25988;SDS011;13778;48.236;9.894;2022-07-29T00:57:50;11.35;;;7.82;;
25988;SDS011;13778;48.236;9.894;2022-07-29T01:00:41;9.60;;;8.23;;
25988;SDS011;13778;48.236;9.894;2022-07-29T01:03:32;9.13;;;8.13;;
25988;SDS011;13778;48.236;9.894;2022-07-29T01:06:22;10.90;;;8.38;;
25988;SDS011;13778;48.236;9.894;2022-07-29T01:09:13;12.88;;;8.63;;
25988;SDS011;13778;48.236;9.894;2022-07-29T01:12:04;10.63;;;7.60;;
25988;SDS011;13778;48.236;9.894;2022-07-29T01:14:56;8.67;;;7.87;;
25988;SDS011;13778;48.236;9.894;2022-07-29T01:17:50;9.57;;;8.30;;
25988;SDS011;13778;48.236;9.894;2022-07-29T01:20:47;16.48;;;8.80;;
25988;SDS011;13778;48.236;9.894;2022-07-29T01:23:42;9.63;;;8.65;;
25988;SDS011;13778;48.236;9.894;2022-07-29T01:26:41;13.45;;;8.32;;
25988;SDS011;13778;48.236;9.894;2022-07-29T01:29:33;13.00;;;8.30;;
25988;SDS011;13778;48.236;9.894;2022-07-29T01:32:27;11.27;;;8.13;;
25988;SDS011;13778;48.236;9.894;2022-07-29T01:35:19;10.02;;;8.32;;
25988;SDS011;13778;48.236;9.894;2022-07-29T01:38:12;11.40;;;8.05;;
25988;SDS011;13778;48.236;9.894;2022-07-29T01:41:05;9.65;;;7.32;;
25988;SDS011;13778;48.236;9.894;2022-07-29T01:43:57;9.75;;;8.75;;
25988;SDS011;13778;48.236;9.894;2022-07-29T01:46:52;9.30;;;8.15;;
25988;SDS011;13778;48.236;9.894;2022-07-29T01:49:47;11.52;;;8.50;;
25988;SDS011;13778;48.236;9.894;2022-07-29T01:52:39;13.35;;;8.75;;
25988;SDS011;13778;48.236;9.894;2022-07-29T01:55:34;10.50;;;8.23;;
25988;SDS011;13778;48.236;9.894;2022-07-29T01:58:25;12.70;;;8.20;;
25988;SDS011;13778;48.236;9.894;2022-07-29T02:01:16;11.13;;;9.43;;
25988;SDS011;13778;48.236;9.894;2022-07-29T02:04:09;9.52;;;8.73;;
25988;SDS011;13778;48.236;9.894;2022-07-29T02:07:01;10.98;;;9.68;;
25988;SDS011;13778;48.236;9.894;2022-07-29T02:09:52;11.27;;;8.57;;
25988;SDS011;13778;48.236;9.894;2022-07-29T02:12:43;14.65;;;10.90;;
25988;SDS011;13778;48.236;9.894;2022-07-29T02:15:35;10.07;;;9.02;;
25988;SDS011;13778;48.236;9.894;2022-07-29T02:18:25;9.55;;;8.65;;
25988;SDS011;13778;48.236;9.894;2022-07-29T02:21:21;9.23;;;8.32;;
25988;SDS011;13778;48.236;9.894;2022-07-29T02:24:13;9.50;;;8.13;;
25988;SDS011;13778;48.236;9.894;2022-07-29T02:27:03;9.90;;;8.88;;
25988;SDS011;13778;48.236;9.894;2022-07-29T02:29:54;9.73;;;8.82;;
25988;SDS011;13778;48.236;9.894;2022-07-29T02:32:44;11.88;;;9.15;;
25988;SDS011;13778;48.236;9.894;2022-07-29T02:35:35;10.97;;;9.57;;
25988;SDS011;13778;48.236;9.894;2022-07-29T02:38:28;10.07;;;8.80;;
25988;SDS011;13778;48.236;9.894;2022-07-29T02:41:38;13.07;;;9.60;;
25988;SDS011;13778;48.236;9.894;2022-07-29T02:44:30;9.80;;;8.80;;
25988;SDS011;13778;48.236;9.894;2022-07-29T02:47:22;10.63;;;9.57;;
25988;SDS011;13778;48.236;9.894;2022-07-29T02:50:14;11.38;;;10.27;;
25988;SDS011;13778;48.236;9.894;2022-07-29T02:53:05;14.05;;;9.90;;
25988;SDS011;13778;48.236;9.894;2022-07-29T02:55:58;12.85;;;11.48;;
25988;SDS011;13778;48.236;9.894;2022-07-29T02:58:50;12.98;;;10.52;;
25988;SDS011;13778;48.236;9.894;2022-07-29T03:01:42;12.55;;;10.55;;
25988;SDS011;13778;48.236;9.894;2022-07-29T03:04:33;13.93;;;12.00;;
25988;SDS011;13778;48.236;9.894;2022-07-29T03:07:24;15.88;;;12.68;;
25988;SDS011;13778;48.236;9.894;2022-07-29T03:10:15;13.70;;;12.30;;
25988;SDS011;13778;48.236;9.894;2022-07-29T03:13:07;14.43;;;11.80;;
25988;SDS011;13778;48.236;9.894;2022-07-29T03:15:58;12.20;;;11.00;;
25988;SDS011;13778;48.236;9.894;2022-07-29T03:18:48;14.85;;;13.23;;
25988;SDS011;13778;48.236;9.894;2022-07-29T03:21:39;15.63;;;14.05;;
25988;SDS011;13778;48.236;9.894;2022-07-29T03:24:31;15.70;;;13.05;;
25988;SDS011;13778;48.236;9.894;2022-07-29T03:27:22;14.73;;;13.18;;
25988;SDS011;13778;48.236;9.894;2022-07-29T03:30:14;14.25;;;12.88;;
25988;SDS011;13778;48.236;9.894;2022-07-29T03:33:05;13.73;;;12.40;;
25988;SDS011;13778;48.236;9.894;2022-07-29T03:35:56;17.70;;;12.35;;
25988;SDS011;13778;48.236;9.894;2022-07-29T03:38:47;16.63;;;13.07;;
25988;SDS011;13778;48.236;9.894;2022-07-29T03:41:38;15.07;;;13.47;;
25988;SDS011;13778;48.236;9.894;2022-07-29T03:44:30;14.90;;;12.13;;
25988;SDS011;13778;48.236;9.894;2022-07-29T03:47:24;13.63;;;12.20;;
25988;SDS011;13778;48.236;9.894;2022-07-29T03:50:16;13.13;;;11.88;;
25988;SDS011;13778;48.236;9.894;2022-07-29T03:53:08;14.70;;;11.55;;
25988;SDS011;13778;48.236;9.894;2022-07-29T03:55:59;11.82;;;10.73;;
25988;SDS011;13778;48.236;9.894;2022-07-29T03:58:51;13.43;;;9.73;;
25988;SDS011;13778;48.236;9.894;2022-07-29T04:01:42;12.20;;;10.30;;
25988;SDS011;13778;48.236;9.894;2022-07-29T04:04:34;13.25;;;9.55;;
25988;SDS011;13778;48.236;9.894;2022-07-29T04:10:17;7.43;;;6.72;;
25988;SDS011;13778;48.236;9.894;2022-07-29T04:13:08;11.30;;;7.07;;
25988;SDS011;13778;48.236;9.894;2022-07-29T04:15:58;9.60;;;6.60;;
25988;SDS011;13778;48.236;9.894;2022-07-29T04:18:48;9.38;;;5.60;;
25988;SDS011;13778;48.236;9.894;2022-07-29T04:21:40;8.38;;;6.72;;
25988;SDS011;13778;48.236;9.894;2022-07-29T04:24:31;9.32;;;6.22;;
25988;SDS011;13778;48.236;9.894;2022-07-29T04:27:22;7.97;;;5.55;;
25988;SDS011;13778;48.236;9.894;2022-07-29T04:30:12;10.50;;;5.57;;
25988;SDS011;13778;48.236;9.894;2022-07-29T04:33:04;6.45;;;5.63;;
25988;SDS011;13778;48.236;9.894;2022-07-29T04:38:46;6.15;;;4.72;;
25988;SDS011;13778;48.236;9.894;2022-07-29T04:41:36;5.63;;;5.10;;
25988;SDS011;13778;48.236;9.894;2022-07-29T04:44:27;6.03;;;4.45;;
25988;SDS011;13778;48.236;9.894;2022-07-29T04:47:17;5.15;;;4.25;;
25988;SDS011;13778;48.236;9.894;2022-07-29T04:50:08;7.70;;;4.53;;
25988;SDS011;13778;48.236;9.894;2022-07-29T04:52:58;10.05;;;4.63;;
25988;SDS011;13778;48.236;9.894;2022-07-29T04:55:50;6.25;;;4.00;;
25988;SDS011;13778;48.236;9.894;2022-07-29T04:58:40;10.20;;;3.88;;
25988;SDS011;13778;48.236;9.894;2022-07-29T05:01:31;9.65;;;4.07;;
25988;SDS011;13778;48.236;9.894;2022-07-29T05:04:21;5.80;;;4.15;;
25988;SDS011;13778;48.236;9.894;2022-07-29T05:07:12;7.88;;;4.57;;
25988;SDS011;13778;48.236;9.894;2022-07-29T05:10:03;7.43;;;3.92;;
25988;SDS011;13778;48.236;9.894;2022-07-29T05:12:55;6.13;;;4.30;;
25988;SDS011;13778;48.236;9.894;2022-07-29T05:15:45;6.55;;;4.05;;
25988;SDS011;13778;48.236;9.894;2022-07-29T05:18:36;8.02;;;4.72;;
25988;SDS011;13778;48.236;9.894;2022-07-29T05:21:26;8.23;;;3.83;;
25988;SDS011;13778;48.236;9.894;2022-07-29T05:24:17;5.80;;;3.72;;
25988;SDS011;13778;48.236;9.894;2022-07-29T05:27:07;6.57;;;3.88;;
25988;SDS011;13778;48.236;9.894;2022-07-29T05:29:59;8.00;;;3.67;;
25988;SDS011;13778;48.236;9.894;2022-07-29T05:32:50;3.75;;;3.45;;
25988;SDS011;13778;48.236;9.894;2022-07-29T05:35:40;6.75;;;3.35;;
25988;SDS011;13778;48.236;9.894;2022-07-29T05:38:31;5.57;;;3.50;;
25988;SDS011;13778;48.236;9.894;2022-07-29T05:41:21;3.15;;;2.85;;
25988;SDS011;13778;48.236;9.894;2022-07-29T05:44:11;5.47;;;2.80;;
25988;SDS011;13778;48.236;9.894;2022-07-29T05:47:04;5.37;;;3.10;;
25988;SDS011;13778;48.236;9.894;2022-07-29T05:49:55;8.15;;;3.60;;
25988;SDS011;13778;48.236;9.894;2022-07-29T05:52:46;4.55;;;2.80;;
25988;SDS011;13778;48.236;9.894;2022-07-29T05:55:36;9.20;;;3.10;;
25988;SDS011;13778;48.236;9.894;2022-07-29T05:58:27;5.97;;;3.08;;
25988;SDS011;13778;48.236;9.894;2022-07-29T06:01:18;5.57;;;3.15;;
25988;SDS011;13778;48.236;9.894;2022-07-29T06:04:10;4.57;;;3.03;;
25988;SDS011;13778;48.236;9.894;2022-07-29T06:09:50;6.97;;;3.25;;
25988;SDS011;13778;48.236;9.894;2022-07-29T06:12:41;5.90;;;2.85;;
25988;SDS011;13778;48.236;9.894;2022-07-29T06:15:31;5.10;;;3.50;;
25988;SDS011;13778;48.236;9.894;2022-07-29T06:18:22;6.22;;;3.83;;
25988;SDS011;13778;48.236;9.894;2022-07-29T06:21:14;8.38;;;2.97;;
25988;SDS011;13778;48.236;9.894;2022-07-29T06:26:54;7.95;;;2.95;;
25988;SDS011;13778;48.236;9.894;2022-07-29T06:29:45;4.00;;;3.00;;
25988;SDS011;13778;48.236;9.894;2022-07-29T06:32:35;7.45;;;2.83;;
25988;SDS011;13778;48.236;9.894;2022-07-29T06:35:26;6.93;;;3.55;;
25988;SDS011;13778;48.236;9.894;2022-07-29T06:38:17;4.38;;;3.25;;
25988;SDS011;13778;48.236;9.894;2022-07-29T06:44:01;3.03;;;2.72;;
25988;SDS011;13778;48.236;9.894;2022-07-29T06:46:51;3.65;;;2.85;;
25988;SDS011;13778;48.236;9.894;2022-07-29T06:49:43;7.78;;;3.15;;
25988;SDS011;13778;48.236;9.894;2022-07-29T06:52:34;8.48;;;2.75;;
25988;SDS011;13778;48.236;9.894;2022-07-29T06:55:26;8.80;;;2.78;;
25988;SDS011;13778;48.236;9.894;2022-07-29T06:58:16;7.03;;;2.47;;
25988;SDS011;13778;48.236;9.894;2022-07-29T07:01:09;6.93;;;2.60;;
25988;SDS011;13778;48.236;9.894;2022-07-29T07:04:00;5.38;;;3.00;;
25988;SDS011;13778;48.236;9.894;2022-07-29T07:06:50;6.30;;;3.08;;
25988;SDS011;13778;48.236;9.894;2022-07-29T07:09:41;7.78;;;3.05;;
25988;SDS011;13778;48.236;9.894;2022-07-29T07:12:33;3.95;;;3.25;;
25988;SDS011;13778;48.236;9.894;2022-07-29T07:15:23;2.55;;;2.35;;
25988;SDS011;13778;48.236;9.894;2022-07-29T07:18:14;5.70;;;2.53;;
25988;SDS011;13778;48.236;9.894;2022-07-29T07:21:04;8.68;;;2.80;;
25988;SDS011;13778;48.236;9.894;2022-07-29T07:23:55;6.30;;;2.88;;
25988;SDS011;13778;48.236;9.894;2022-07-29T07:26:45;4.95;;;2.75;;
25988;SDS011;13778;48.236;9.894;2022-07-29T07:29:37;7.97;;;2.45;;
25988;SDS011;13778;48.236;9.894;2022-07-29T07:32:29;3.75;;;2.22;;
25988;SDS011;13778;48.236;9.894;2022-07-29T07:35:20;7.22;;;2.90;;
25988;SDS011;13778;48.236;9.894;2022-07-29T07:38:10;8.48;;;3.08;;
25988;SDS011;13778;48.236;9.894;2022-07-29T07:41:01;8.35;;;3.15;;
25988;SDS011;13778;48.236;9.894;2022-07-29T07:43:51;7.53;;;3.08;;
25988;SDS011;13778;48.236;9.894;2022-07-29T07:46:43;6.07;;;3.80;;
25988;SDS011;13778;48.236;9.894;2022-07-29T07:49:34;4.07;;;3.15;;
25988;SDS011;13778;48.236;9.894;2022-07-29T07:52:25;9.68;;;2.60;;
25988;SDS011;13778;48.236;9.894;2022-07-29T07:55:15;5.72;;;2.40;;
25988;SDS011;13778;48.236;9.894;2022-07-29T07:58:06;4.82;;;2.92;;
25988;SDS011;13778;48.236;9.894;2022-07-29T08:00:56;4.07;;;2.40;;
25988;SDS011;13778;48.236;9.894;2022-07-29T08:03:48;4.45;;;2.67;;
25988;SDS011;13778;48.236;9.894;2022-07-29T08:06:39;6.68;;;2.78;;
25988;SDS011;13778;48.236;9.894;2022-07-29T08:09:29;7.80;;;3.65;;
25988;SDS011;13778;48.236;9.894;2022-07-29T08:12:20;6.28;;;3.05;;
25988;SDS011;13778;48.236;9.894;2022-07-29T08:15:10;5.50;;;2.85;;
25988;SDS011;13778;48.236;9.894;2022-07-29T08:18:01;9.05;;;2.85;;
25988;SDS011;13778;48.236;9.894;2022-07-29T08:20:53;4.65;;;3.38;;
25988;SDS011;13778;48.236;9.894;2022-07-29T08:23:44;2.90;;;2.55;;
25988;SDS011;13778;48.236;9.894;2022-07-29T08:26:41;3.75;;;2.55;;
25988;SDS011;13778;48.236;9.894;2022-07-29T08:29:32;4.85;;;3.30;;
25988;SDS011;13778;48.236;9.894;2022-07-29T08:32:22;4.15;;;2.63;;
25988;SDS011;13778;48.236;9.894;2022-07-29T08:35:13;10.40;;;3.70;;
25988;SDS011;13778;48.236;9.894;2022-07-29T08:38:05;8.10;;;3.60;;
25988;SDS011;13778;48.236;9.894;2022-07-29T08:40:55;4.82;;;3.50;;
25988;SDS011;13778;48.236;9.894;2022-07-29T08:43:46;5.32;;;2.83;;
25988;SDS011;13778;48.236;9.894;2022-07-29T08:46:37;9.55;;;3.20;;
25988;SDS011;13778;48.236;9.894;2022-07-29T08:49:27;2.85;;;2.63;;
25988;SDS011;13778;48.236;9.894;2022-07-29T08:52:18;2.93;;;2.67;;
25988;SDS011;13778;48.236;9.894;2022-07-29T08:55:11;3.65;;;2.60;;
25988;SDS011;13778;48.236;9.894;2022-07-29T08:58:02;4.40;;;3.00;;
25988;SDS011;13778;48.236;9.894;2022-07-29T09:00:54;3.70;;;2.92;;
25988;SDS011;13778;48.236;9.894;2022-07-29T09:03:44;4.55;;;2.97;;
25988;SDS011;13778;48.236;9.894;2022-07-29T09:06:36;3.92;;;3.25;;
25988;SDS011;13778;48.236;9.894;2022-07-29T09:09:27;3.78;;;2.60;;
25988;SDS011;13778;48.236;9.894;2022-07-29T09:12:19;4.65;;;3.05;;
25988;SDS011;13778;48.236;9.894;2022-07-29T09:15:11;5.13;;;2.92;;
25988;SDS011;13778;48.236;9.894;2022-07-29T09:18:01;4.13;;;2.78;;
25988;SDS011;13778;48.236;9.894;2022-07-29T09:20:52;3.65;;;2.92;;
25988;SDS011;13778;48.236;9.894;2022-07-29T09:24:01;3.80;;;3.08;;
25988;SDS011;13778;48.236;9.894;2022-07-29T09:26:52;3.47;;;3.17;;
25988;SDS011;13778;48.236;9.894;2022-07-29T09:29:44;3.78;;;3.30;;
25988;SDS011;13778;48.236;9.894;2022-07-29T09:32:35;4.88;;;3.65;;
25988;SDS011;13778;48.236;9.894;2022-07-29T09:35:43;5.38;;;3.33;;
25988;SDS011;13778;48.236;9.894;2022-07-29T09:38:34;3.92;;;3.33;;
25988;SDS011;13778;48.236;9.894;2022-07-29T09:41:25;5.35;;;3.20;;
25988;SDS011;13778;48.236;9.894;2022-07-29T09:44:16;5.57;;;3.70;;
25988;SDS011;13778;48.236;9.894;2022-07-29T09:47:08;6.30;;;3.40;;
25988;SDS011;13778;48.236;9.894;2022-07-29T09:49:58;5.18;;;3.63;;
25988;SDS011;13778;48.236;9.894;2022-07-29T09:52:50;3.70;;;3.10;;
25988;SDS011;13778;48.236;9.894;2022-07-29T09:55:47;5.57;;;3.47;;
25988;SDS011;13778;48.236;9.894;2022-07-29T09:58:38;4.07;;;3.65;;
25988;SDS011;13778;48.236;9.894;2022-07-29T10:01:29;5.07;;;3.92;;
25988;SDS011;13778;48.236;9.894;2022-07-29T10:04:20;5.25;;;4.03;;
25988;SDS011;13778;48.236;9.894;2022-07-29T10:10:01;4.05;;;3.47;;
25988;SDS011;13778;48.236;9.894;2022-07-29T10:12:52;5.18;;;3.38;;
25988;SDS011;13778;48.236;9.894;2022-07-29T10:15:43;4.00;;;3.53;;
25988;SDS011;13778;48.236;9.894;2022-07-29T10:21:26;3.83;;;3.40;;
25988;SDS011;13778;48.236;9.894;2022-07-29T10:24:17;6.35;;;3.55;;
25988;SDS011;13778;48.236;9.894;2022-07-29T10:27:08;5.70;;;3.58;;
25988;SDS011;13778;48.236;9.894;2022-07-29T10:29:58;3.85;;;3.50;;
25988;SDS011;13778;48.236;9.894;2022-07-29T10:35:44;6.07;;;3.30;;
25988;SDS011;13778;48.236;9.894;2022-07-29T10:38:43;8.40;;;3.72;;
25988;SDS011;13778;48.236;9.894;2022-07-29T10:44:44;6.05;;;3.50;;
25988;SDS011;13778;48.236;9.894;2022-07-29T10:47:34;3.88;;;2.97;;
25988;SDS011;13778;48.236;9.894;2022-07-29T10:50:25;3.95;;;3.03;;
25988;SDS011;13778;48.236;9.894;2022-07-29T10:53:15;3.47;;;3.05;;
25988;SDS011;13778;48.236;9.894;2022-07-29T10:56:07;3.15;;;2.95;;
25988;SDS011;13778;48.236;9.894;2022-07-29T10:59:22;4.68;;;3.35;;
25988;SDS011;13778;48.236;9.894;2022-07-29T11:05:18;7.15;;;2.95;;
25988;SDS011;13778;48.236;9.894;2022-07-29T11:08:22;4.75;;;2.83;;
25988;SDS011;13778;48.236;9.894;2022-07-29T11:20:47;5.00;;;2.80;;
25988;SDS011;13778;48.236;9.894;2022-07-29T11:23:39;2.97;;;2.50;;
25988;SDS011;13778;48.236;9.894;2022-07-29T11:26:31;3.38;;;2.05;;
25988;SDS011;13778;48.236;9.894;2022-07-29T11:29:21;5.00;;;2.30;;
25988;SDS011;13778;48.236;9.894;2022-07-29T11:32:13;3.55;;;2.70;;
25988;SDS011;13778;48.236;9.894;2022-07-29T11:35:12;5.55;;;2.42;;
25988;SDS011;13778;48.236;9.894;2022-07-29T11:41:22;3.78;;;3.33;;
25988;SDS011;13778;48.236;9.894;2022-07-29T11:44:13;3.10;;;2.80;;
25988;SDS011;13778;48.236;9.894;2022-07-29T11:47:04;5.78;;;3.00;;
25988;SDS011;13778;48.236;9.894;2022-07-29T11:49:55;3.40;;;3.20;;
25988;SDS011;13778;48.236;9.894;2022-07-29T11:52:46;3.50;;;3.20;;
25988;SDS011;13778;48.236;9.894;2022-07-29T11:55:37;6.00;;;3.35;;
25988;SDS011;13778;48.236;9.894;2022-07-29T11:58:29;3.80;;;3.22;;
25988;SDS011;13778;48.236;9.894;2022-07-29T12:01:20;6.55;;;3.17;;
25988;SDS011;13778;48.236;9.894;2022-07-29T12:04:13;3.88;;;3.33;;
25988;SDS011;13778;48.236;9.894;2022-07-29T12:07:03;5.18;;;3.75;;
25988;SDS011;13778;48.236;9.894;2022-07-29T12:09:54;11.82;;;4.30;;
25988;SDS011;13778;48.236;9.894;2022-07-29T12:12:48;3.78;;;3.38;;
25988;SDS011;13778;48.236;9.894;2022-07-29T12:15:42;4.53;;;3.75;;
25988;SDS011;13778;48.236;9.894;2022-07-29T12:18:34;5.97;;;4.15;;
25988;SDS011;13778;48.236;9.894;2022-07-29T12:21:25;5.00;;;4.00;;
25988;SDS011;13778;48.236;9.894;2022-07-29T12:24:15;8.52;;;3.95;;
25988;SDS011;13778;48.236;9.894;2022-07-29T12:27:06;5.78;;;4.15;;
25988;SDS011;13778;48.236;9.894;2022-07-29T12:29:56;4.50;;;4.10;;
25988;SDS011;13778;48.236;9.894;2022-07-29T12:32:48;3.97;;;3.60;;
25988;SDS011;13778;48.236;9.894;2022-07-29T12:35:38;3.88;;;3.38;;
25988;SDS011;13778;48.236;9.894;2022-07-29T12:38:28;6.18;;;4.15;;
25988;SDS011;13778;48.236;9.894;2022-07-29T12:41:19;4.82;;;3.45;;
25988;SDS011;13778;48.236;9.894;2022-07-29T12:44:10;6.30;;;3.55;;
25988;SDS011;13778;48.236;9.894;2022-07-29T12:47:01;5.75;;;3.45;;
25988;SDS011;13778;48.236;9.894;2022-07-29T12:53:09;6.38;;;2.72;;
25988;SDS011;13778;48.236;9.894;2022-07-29T12:56:00;3.90;;;2.50;;
25988;SDS011;13778;48.236;9.894;2022-07-29T12:58:51;3.03;;;2.80;;
25988;SDS011;13778;48.236;9.894;2022-07-29T13:01:41;3.95;;;3.03;;
25988;SDS011;13778;48.236;9.894;2022-07-29T13:04:32;5.22;;;2.65;;
25988;SDS011;13778;48.236;9.894;2022-07-29T13:07:25;2.88;;;2.47;;
25988;SDS011;13778;48.236;9.894;2022-07-29T13:10:20;3.72;;;2.50;;
25988;SDS011;13778;48.236;9.894;2022-07-29T13:13:11;4.78;;;3.30;;
25988;SDS011;13778;48.236;9.894;2022-07-29T13:16:05;3.33;;;3.03;;
25988;SDS011;13778;48.236;9.894;2022-07-29T13:19:06;4.90;;;3.17;;
25988;SDS011;13778;48.236;9.894;2022-07-29T13:21:57;5.90;;;3.27;;
25988;SDS011;13778;48.236;9.894;2022-07-29T13:24:48;6.60;;;3.40;;
25988;SDS011;13778;48.236;9.894;2022-07-29T13:27:40;3.58;;;2.75;;
25988;SDS011;13778;48.236;9.894;2022-07-29T13:30:31;3.28;;;3.00;;
25988;SDS011;13778;48.236;9.894;2022-07-29T13:33:21;3.00;;;2.80;;
25988;SDS011;13778;48.236;9.894;2022-07-29T13:36:12;7.47;;;3.28;;
25988;SDS011;13778;48.236;9.894;2022-07-29T13:39:03;3.08;;;2.72;;
25988;SDS011;13778;48.236;9.894;2022-07-29T13:41:54;2.70;;;2.50;;
25988;SDS011;13778;48.236;9.894;2022-07-29T13:44:46;4.28;;;2.60;;
25988;SDS011;13778;48.236;9.894;2022-07-29T13:47:37;2.70;;;2.50;;
25988;SDS011;13778;48.236;9.894;2022-07-29T13:50:28;4.45;;;2.60;;
25988;SDS011;13778;48.236;9.894;2022-07-29T13:53:18;3.08;;;2.78;;
25988;SDS011;13778;48.236;9.894;2022-07-29T13:56:09;4.78;;;2.22;;
25988;SDS011;13778;48.236;9.894;2022-07-29T13:58:59;3.25;;;2.45;;
25988;SDS011;13778;48.236;9.894;2022-07-29T14:01:51;3.90;;;2.65;;
25988;SDS011;13778;48.236;9.894;2022-07-29T14:07:31;3.63;;;2.47;;
25988;SDS011;13778;48.236;9.894;2022-07-29T14:10:22;3.50;;;2.00;;
25988;SDS011;13778;48.236;9.894;2022-07-29T14:13:12;3.97;;;1.63;;
25988;SDS011;13778;48.236;9.894;2022-07-29T14:16:03;3.03;;;1.63;;
25988;SDS011;13778;48.236;9.894;2022-07-29T14:18:55;2.67;;;1.65;;
25988;SDS011;13778;48.236;9.894;2022-07-29T14:24:35;3.40;;;2.83;;
25988;SDS011;13778;48.236;9.894;2022-07-29T14:27:25;4.65;;;2.50;;
25988;SDS011;13778;48.236;9.894;2022-07-29T14:30:16;4.70;;;2.80;;
25988;SDS011;13778;48.236;9.894;2022-07-29T14:33:06;3.88;;;2.75;;
25988;SDS011;13778;48.236;9.894;2022-07-29T14:35:58;13.10;;;3.00;;
25988;SDS011;13778;48.236;9.894;2022-07-29T14:38:49;7.60;;;2.80;;
25988;SDS011;13778;48.236;9.894;2022-07-29T14:41:39;4.95;;;3.00;;
25988;SDS011;13778;48.236;9.894;2022-07-29T14:44:29;6.88;;;3.20;;
25988;SDS011;13778;48.236;9.894;2022-07-29T14:47:20;3.67;;;3.38;;
25988;SDS011;13778;48.236;9.894;2022-07-29T14:50:12;6.95;;;4.13;;
25988;SDS011;13778;48.236;9.894;2022-07-29T14:53:04;7.10;;;4.45;;
25988;SDS011;13778;48.236;9.894;2022-07-29T14:58:44;4.82;;;3.58;;
25988;SDS011;13778;48.236;9.894;2022-07-29T15:01:35;10.45;;;3.72;;
25988;SDS011;13778;48.236;9.894;2022-07-29T15:04:25;8.98;;;5.15;;
25988;SDS011;13778;48.236;9.894;2022-07-29T15:07:16;7.47;;;5.45;;
25988;SDS011;13778;48.236;9.894;2022-07-29T15:10:08;6.70;;;5.10;;
25988;SDS011;13778;48.236;9.894;2022-07-29T15:12:59;7.65;;;4.72;;
25988;SDS011;13778;48.236;9.894;2022-07-29T15:15:49;6.38;;;5.72;;
25988;SDS011;13778;48.236;9.894;2022-07-29T15:18:40;10.30;;;5.32;;
25988;SDS011;13778;48.236;9.894;2022-07-29T15:21:30;6.07;;;5.00;;
25988;SDS011;13778;48.236;9.894;2022-07-29T15:24:21;6.65;;;5.18;;
25988;SDS011;13778;48.236;9.894;2022-07-29T15:27:12;6.20;;;4.95;;
25988;SDS011;13778;48.236;9.894;2022-07-29T15:30:04;10.38;;;5.35;;
25988;SDS011;13778;48.236;9.894;2022-07-29T15:32:54;8.23;;;5.32;;
25988;SDS011;13778;48.236;9.894;2022-07-29T15:35:45;10.23;;;6.20;;
25988;SDS011;13778;48.236;9.894;2022-07-29T15:38:35;12.02;;;5.50;;
25988;SDS011;13778;48.236;9.894;2022-07-29T15:41:26;9.55;;;5.60;;
25988;SDS011;13778;48.236;9.894;2022-07-29T15:44:18;11.48;;;6.00;;
25988;SDS011;13778;48.236;9.894;2022-07-29T15:47:09;9.98;;;5.78;;
25988;SDS011;13778;48.236;9.894;2022-07-29T15:49:59;9.82;;;5.18;;
25988;SDS011;13778;48.236;9.894;2022-07-29T15:52:50;5.82;;;5.25;;
25988;SDS011;13778;48.236;9.894;2022-07-29T15:55:40;8.32;;;5.60;;
25988;SDS011;13778;48.236;9.894;2022-07-29T15:58:31;11.10;;;5.75;;
25988;SDS011;13778;48.236;9.894;2022-07-29T16:01:23;10.52;;;5.78;;
25988;SDS011;13778;48.236;9.894;2022-07-29T16:04:13;13.13;;;5.75;;
25988;SDS011;13778;48.236;9.894;2022-07-29T16:07:03;7.38;;;5.72;;
25988;SDS011;13778;48.236;9.894;2022-07-29T16:09:54;6.53;;;4.65;;
25988;SDS011;13778;48.236;9.894;2022-07-29T16:12:44;10.70;;;4.90;;
25988;SDS011;13778;48.236;9.894;2022-07-29T16:15:35;9.70;;;5.47;;
25988;SDS011;13778;48.236;9.894;2022-07-29T16:18:27;8.63;;;4.78;;
25988;SDS011;13778;48.236;9.894;2022-07-29T16:24:07;10.00;;;5.25;;
25988;SDS011;13778;48.236;9.894;2022-07-29T16:26:58;5.75;;;5.10;;
25988;SDS011;13778;48.236;9.894;2022-07-29T16:29:48;10.00;;;5.60;;
25988;SDS011;13778;48.236;9.894;2022-07-29T16:32:39;12.30;;;5.63;;
25988;SDS011;13778;48.236;9.894;2022-07-29T16:35:30;7.60;;;6.32;;
25988;SDS011;13778;48.236;9.894;2022-07-29T16:38:21;9.20;;;6.03;;
25988;SDS011;13778;48.236;9.894;2022-07-29T16:41:11;10.40;;;6.40;;
25988;SDS011;13778;48.236;9.894;2022-07-29T16:44:01;7.65;;;5.80;;
25988;SDS011;13778;48.236;9.894;2022-07-29T16:46:51;6.53;;;5.82;;
25988;SDS011;13778;48.236;9.894;2022-07-29T16:49:42;6.93;;;5.60;;
25988;SDS011;13778;48.236;9.894;2022-07-29T16:52:34;7.05;;;5.97;;
25988;SDS011;13778;48.236;9.894;2022-07-29T16:55:25;6.20;;;5.55;;
25988;SDS011;13778;48.236;9.894;2022-07-29T16:58:15;9.88;;;5.47;;
25988;SDS011;13778;48.236;9.894;2022-07-29T17:01:06;10.40;;;6.18;;
25988;SDS011;13778;48.236;9.894;2022-07-29T17:03:56;7.45;;;5.95;;
25988;SDS011;13778;48.236;9.894;2022-07-29T17:06:56;9.45;;;6.15;;
25988;SDS011;13778;48.236;9.894;2022-07-29T17:09:47;6.63;;;5.95;;
25988;SDS011;13778;48.236;9.894;2022-07-29T17:12:38;8.38;;;4.97;;
25988;SDS011;13778;48.236;9.894;2022-07-29T17:15:29;5.88;;;5.28;;
25988;SDS011;13778;48.236;9.894;2022-07-29T17:18:19;5.43;;;4.10;;
25988;SDS011;13778;48.236;9.894;2022-07-29T17:21:10;8.00;;;4.45;;
25988;SDS011;13778;48.236;9.894;2022-07-29T17:24:00;5.80;;;4.43;;
25988;SDS011;13778;48.236;9.894;2022-07-29T17:26:52;4.72;;;3.92;;
25988;SDS011;13778;48.236;9.894;2022-07-29T17:29:42;3.80;;;3.50;;
25988;SDS011;13778;48.236;9.894;2022-07-29T17:32:33;6.40;;;3.70;;
25988;SDS011;13778;48.236;9.894;2022-07-29T17:35:26;5.20;;;3.67;;
25988;SDS011;13778;48.236;9.894;2022-07-29T17:38:34;6.38;;;3.42;;
25988;SDS011;13778;48.236;9.894;2022-07-29T17:41:25;4.35;;;3.95;;
25988;SDS011;13778;48.236;9.894;2022-07-29T17:44:16;5.97;;;3.75;;
25988;SDS011;13778;48.236;9.894;2022-07-29T17:49:57;5.57;;;3.42;;
25988;SDS011;13778;48.236;9.894;2022-07-29T17:52:47;8.07;;;4.18;;
25988;SDS011;13778;48.236;9.894;2022-07-29T17:55:37;4.72;;;4.00;;
25988;SDS011;13778;48.236;9.894;2022-07-29T17:58:28;7.53;;;4.57;;
25988;SDS011;13778;48.236;9.894;2022-07-29T18:01:20;7.25;;;4.40;;
25988;SDS011;13778;48.236;9.894;2022-07-29T18:04:11;7.30;;;4.22;;
25988;SDS011;13778;48.236;9.894;2022-07-29T18:09:53;8.38;;;4.88;;
25988;SDS011;13778;48.236;9.894;2022-07-29T18:12:43;8.77;;;5.63;;